Time;durP1;ratioP1;P1;durP2;ratioP2;P2;SDS_P1;SDS_P2;PMS_P1;PMS_P2;Temp;Humidity;BMP_temperature;BMP_pressure;BME280_temperature;BME280_humidity;BME280_pressure;Samples;Min_cycle;Max_cycle;Signal;HPM_P1;HPM_P2
2023/06/22 00:00:31;;;;;;;8.00;6.22;;;;;;;20.21;49.21;94322.38;4986775;28;20129;-73
2023/06/22 00:02:56;;;;;;;7.57;6.30;;;;;;;20.25;49.27;94325.91;4986048;28;20136;-74
2023/06/22 00:05:22;;;;;;;7.63;5.63;;;;;;;20.21;48.70;94306.19;4984361;28;20447;-74
2023/06/22 00:07:47;;;;;;;8.02;6.35;;;;;;;20.29;48.92;94326.00;4991117;28;20121;-74
2023/06/22 00:10:12;;;;;;;7.38;5.68;;;;;;;20.24;49.01;94318.94;4988167;28;20149;-74
2023/06/22 00:12:38;;;;;;;7.07;5.93;;;;;;;20.31;48.00;94321.00;4988908;28;20417;-74
2023/06/22 00:15:04;;;;;;;5.80;5.30;;;;;;;20.23;48.22;94314.72;4988204;28;20412;-74
2023/06/22 00:17:29;;;;;;;6.45;5.85;;;;;;;20.23;48.60;94313.94;4987723;28;20421;-74
2023/06/22 00:19:55;;;;;;;7.30;5.30;;;;;;;20.23;48.65;94309.31;4990089;28;20049;-74
2023/06/22 00:22:28;;;;;;;6.75;5.43;;;;;;;20.14;48.42;94284.44;4987994;28;20517;-74
2023/06/22 00:24:54;;;;;;;6.57;5.93;;;;;;;20.13;48.74;94290.97;4986393;28;20484;-74
2023/06/22 00:27:20;;;;;;;5.95;5.30;;;;;;;20.17;48.72;94302.66;4988614;28;20495;-75
2023/06/22 00:29:45;;;;;;;6.15;5.32;;;;;;;20.03;48.81;94276.16;4978998;28;20033;-74
2023/06/22 00:32:10;;;;;;;6.07;4.70;;;;;;;20.06;48.65;94282.75;4990797;28;20025;-74
2023/06/22 00:34:36;;;;;;;7.28;5.68;;;;;;;19.98;49.07;94283.78;4986409;28;20034;-74
2023/06/22 00:37:02;;;;;;;5.57;4.95;;;;;;;20.04;49.15;94302.00;4986916;28;20347;-74
2023/06/22 00:39:27;;;;;;;5.60;5.05;;;;;;;19.97;49.14;94284.94;4990161;28;20497;-73
2023/06/22 00:41:52;;;;;;;8.43;5.60;;;;;;;20.01;49.02;94291.16;4988920;28;20103;-74
2023/06/22 00:44:18;;;;;;;6.00;5.40;;;;;;;19.92;48.96;94283.31;4988823;28;20056;-74
2023/06/22 00:46:44;;;;;;;5.70;5.10;;;;;;;19.97;49.04;94284.94;4994178;28;20034;-73
2023/06/22 00:49:09;;;;;;;8.27;5.85;;;;;;;20.00;49.05;94289.59;4991660;28;20408;-74
2023/06/22 00:51:37;;;;;;;6.10;5.43;;;;;;;20.00;48.83;94289.59;4985976;28;20464;-73
2023/06/22 00:54:05;;;;;;;7.05;6.15;;;;;;;19.75;48.96;94251.38;5002805;28;20069;-74
2023/06/22 00:56:31;;;;;;;5.88;5.35;;;;;;;19.90;49.01;94280.19;4987796;28;20540;-74
2023/06/22 00:58:59;;;;;;;5.57;5.03;;;;;;;19.76;49.89;94279.94;4987784;28;20030;-74
2023/06/22 01:01:24;;;;;;;6.93;5.60;;;;;;;19.80;50.01;94285.41;4984748;28;20034;-74
2023/06/22 01:03:51;;;;;;;6.80;6.10;;;;;;;19.66;50.07;94284.00;4990384;28;20068;-73
2023/06/22 01:06:26;;;;;;;10.45;6.03;;;;;;;19.62;50.55;94296.66;4986987;28;20130;-75
2023/06/22 01:09:01;;;;;;;6.55;5.85;;;;;;;19.62;50.64;94290.50;4988580;28;20047;-73
2023/06/22 01:11:36;;;;;;;6.20;5.30;;;;;;;19.65;51.18;94304.03;4986875;28;20026;-73
2023/06/22 01:14:13;;;;;;;9.95;6.47;;;;;;;19.63;51.28;94314.44;4988211;28;20079;-74
2023/06/22 01:16:43;;;;;;;10.23;7.50;;;;;;;19.53;51.70;94304.22;4987259;28;20445;-73
2023/06/22 01:19:36;;;;;;;10.30;7.97;;;;;;;19.50;52.25;94299.53;4986725;28;20565;-74
2023/06/22 01:22:12;;;;;;;11.55;6.85;;;;;;;19.39;52.15;94293.13;4984519;28;20053;-74
2023/06/22 01:25:12;;;;;;;11.40;5.88;;;;;;;19.46;52.00;94298.66;4984215;28;20046;-74
2023/06/22 01:28:05;;;;;;;6.20;5.60;;;;;;;19.51;51.75;94303.78;5000124;28;20184;-73
2023/06/22 01:30:33;;;;;;;6.85;6.13;;;;;;;19.48;51.48;94299.09;4989140;28;20044;-74
2023/06/22 01:33:02;;;;;;;7.60;5.95;;;;;;;19.50;51.52;94302.25;4985842;28;20045;-75
2023/06/22 01:35:28;;;;;;;8.13;6.38;;;;;;;19.56;51.21;94308.88;4988047;28;20695;-73
2023/06/22 01:37:55;;;;;;;7.50;6.78;;;;;;;19.51;51.25;94306.47;4988684;28;20040;-75
2023/06/22 01:40:21;;;;;;;9.70;5.90;;;;;;;19.57;51.30;94310.44;4986299;28;20046;-75
2023/06/22 01:42:48;;;;;;;6.95;6.25;;;;;;;19.51;51.23;94303.00;4985983;28;20064;-74
2023/06/22 01:45:14;;;;;;;7.90;6.63;;;;;;;19.58;51.39;94322.03;4987215;28;20041;-74
2023/06/22 01:47:40;;;;;;;8.85;6.47;;;;;;;19.49;51.67;94319.56;4988575;28;20030;-74
2023/06/22 01:50:06;;;;;;;7.72;6.55;;;;;;;19.47;51.57;94318.34;4984561;28;20075;-74
2023/06/22 01:52:33;;;;;;;8.77;5.70;;;;;;;19.51;51.52;94322.66;4987550;28;20037;-74
2023/06/22 01:54:59;;;;;;;7.38;6.50;;;;;;;19.54;51.32;94319.28;4987090;28;20046;-74
2023/06/22 01:57:26;;;;;;;7.97;6.85;;;;;;;19.55;51.31;94322.75;4982078;28;20740;-74
2023/06/22 01:59:57;;;;;;;7.45;6.40;;;;;;;19.46;51.74;94320.25;4986643;28;20492;-74
2023/06/22 02:02:29;;;;;;;6.88;5.95;;;;;;;19.46;51.57;94325.66;4987484;28;20393;-74
2023/06/22 02:04:59;;;;;;;7.70;6.45;;;;;;;19.39;52.13;94330.91;4992529;28;20504;-74
2023/06/22 02:07:32;;;;;;;8.05;7.20;;;;;;;19.32;52.35;94334.22;4983856;28;20513;-73
2023/06/22 02:09:59;;;;;;;7.63;6.80;;;;;;;19.30;52.25;94324.94;4989095;28;20042;-74
2023/06/22 02:12:27;;;;;;;10.27;7.18;;;;;;;19.43;52.17;94336.34;4984855;28;20034;-73
2023/06/22 02:14:54;;;;;;;9.07;6.93;;;;;;;19.37;52.01;94335.84;4988751;28;20034;-74
2023/06/22 02:17:20;;;;;;;7.57;6.88;;;;;;;19.25;52.71;94309.03;4986906;28;20029;-74
2023/06/22 02:19:47;;;;;;;11.48;8.05;;;;;;;19.22;52.90;94298.94;4990460;28;20042;-73
2023/06/22 02:22:15;;;;;;;7.38;6.28;;;;;;;19.30;52.59;94311.47;4988097;28;20496;-74
2023/06/22 02:24:40;;;;;;;9.10;6.05;;;;;;;19.36;52.39;94318.09;4988487;28;20061;-75
2023/06/22 02:27:07;;;;;;;7.75;7.00;;;;;;;19.33;52.63;94313.44;4989056;28;20727;-74
2023/06/22 02:29:32;;;;;;;7.82;6.68;;;;;;;19.28;52.90;94327.97;4988272;28;20032;-74
2023/06/22 02:31:58;;;;;;;7.50;6.45;;;;;;;19.24;52.83;94315.56;4986623;28;20025;-73
2023/06/22 02:34:23;;;;;;;6.53;5.85;;;;;;;19.11;52.70;94303.38;4987191;28;20066;-74
2023/06/22 02:36:52;;;;;;;9.48;6.85;;;;;;;19.16;53.03;94322.75;4986871;28;20077;-73
2023/06/22 02:39:22;;;;;;;8.43;7.55;;;;;;;19.08;53.29;94304.06;4986812;28;20026;-75
2023/06/22 02:41:51;;;;;;;8.85;7.00;;;;;;;19.16;53.71;94321.97;4988302;28;20616;-74
2023/06/22 02:44:16;;;;;;;7.57;6.70;;;;;;;19.11;53.57;94319.53;4988716;28;20041;-74
2023/06/22 02:46:42;;;;;;;7.07;6.38;;;;;;;19.02;53.96;94303.56;4989254;28;20030;-73
2023/06/22 02:49:08;;;;;;;8.98;6.85;;;;;;;19.05;53.73;94304.78;4990782;28;20056;-74
2023/06/22 02:51:34;;;;;;;8.70;7.25;;;;;;;19.10;54.01;94313.38;4987818;28;20039;-74
2023/06/22 02:54:00;;;;;;;6.97;6.28;;;;;;;19.17;53.75;94324.28;4990670;28;20034;-74
2023/06/22 02:56:26;;;;;;;7.35;6.18;;;;;;;19.09;54.04;94311.03;4988140;28;20535;-74
2023/06/22 02:58:51;;;;;;;11.95;7.05;;;;;;;18.98;54.39;94307.31;4989651;28;20042;-74
2023/06/22 03:01:23;;;;;;;8.82;6.88;;;;;;;19.01;54.36;94320.09;4991765;28;20125;-73
2023/06/22 03:03:48;;;;;;;7.90;7.10;;;;;;;18.96;54.90;94325.78;4988779;28;20041;-73
2023/06/22 03:06:13;;;;;;;8.02;7.22;;;;;;;18.82;54.93;94308.16;5006341;28;20338;-74
2023/06/22 03:08:39;;;;;;;8.93;7.78;;;;;;;18.67;55.16;94287.44;4988938;28;20388;-74
2023/06/22 03:11:04;;;;;;;7.65;6.85;;;;;;;18.85;54.95;94312.84;4988859;28;20036;-73
2023/06/22 03:13:30;;;;;;;12.70;7.82;;;;;;;18.95;55.15;94332.28;4990272;28;20537;-74
2023/06/22 03:15:55;;;;;;;12.00;7.93;;;;;;;18.95;54.83;94321.50;4989253;28;20183;-73
2023/06/22 03:18:22;;;;;;;8.48;7.68;;;;;;;19.02;54.95;94340.53;4987126;28;20520;-74
2023/06/22 03:20:47;;;;;;;8.45;7.38;;;;;;;18.99;55.29;94336.63;4988026;28;20049;-74
2023/06/22 03:23:13;;;;;;;10.35;8.13;;;;;;;19.06;54.95;94360.28;4990395;28;20026;-73
2023/06/22 03:25:38;;;;;;;10.10;7.40;;;;;;;19.11;54.93;94357.28;4989767;28;20044;-74
2023/06/22 03:28:04;;;;;;;9.23;7.40;;;;;;;19.13;54.97;94352.31;4989129;28;20129;-74
2023/06/22 03:30:29;;;;;;;10.85;8.43;;;;;;;19.09;55.39;94343.38;4988446;28;20045;-74
2023/06/22 03:32:54;;;;;;;9.00;7.95;;;;;;;19.12;55.33;94343.44;4987488;28;20614;-74
2023/06/22 03:35:20;;;;;;;10.02;8.70;;;;;;;19.15;55.75;94350.06;4989591;28;20044;-73
2023/06/22 03:37:45;;;;;;;9.48;8.20;;;;;;;19.07;56.10;94340.25;4990440;28;20475;-74
2023/06/22 03:40:11;;;;;;;9.23;8.32;;;;;;;19.11;56.23;94346.50;4988769;28;21234;-74
2023/06/22 03:42:36;;;;;;;10.32;9.23;;;;;;;19.15;55.71;94355.44;4990870;28;20493;-74
2023/06/22 03:45:03;;;;;;;11.32;8.65;;;;;;;19.26;55.50;94354.50;4987943;28;20789;-73
2023/06/22 03:47:29;;;;;;;8.90;8.00;;;;;;;19.36;56.06;94369.34;4988349;28;20069;-75
2023/06/22 03:49:54;;;;;;;11.38;9.77;;;;;;;19.29;55.35;94363.81;4989125;28;20434;-74
2023/06/22 03:52:22;;;;;;;11.23;8.50;;;;;;;19.40;55.84;94370.22;4990386;28;20070;-73
2023/06/22 03:54:47;;;;;;;13.80;9.45;;;;;;;19.43;55.00;94368.72;4988210;28;20615;-73
2023/06/22 03:57:13;;;;;;;15.32;9.60;;;;;;;19.37;54.70;94378.22;4990366;28;20493;-74
2023/06/22 03:59:38;;;;;;;13.07;9.23;;;;;;;19.47;54.55;94380.38;4990182;28;20019;-74
2023/06/22 04:02:04;;;;;;;17.83;10.63;;;;;;;19.40;54.16;94359.44;4988777;28;20357;-74
2023/06/22 04:04:29;;;;;;;12.88;9.32;;;;;;;19.56;53.76;94367.44;4989093;28;20038;-75
2023/06/22 04:06:55;;;;;;;12.52;9.90;;;;;;;19.07;53.99;94287.09;4986799;28;20133;-74
2023/06/22 04:09:21;;;;;;;14.43;9.27;;;;;;;19.74;53.73;94374.78;4989383;28;20071;-74
2023/06/22 04:11:47;;;;;;;12.90;9.27;;;;;;;19.69;54.24;94366.19;4986819;28;20014;-74
2023/06/22 04:14:12;;;;;;;10.05;8.20;;;;;;;19.83;53.70;94365.66;4989942;28;20681;-74
2023/06/22 04:16:38;;;;;;;10.75;9.25;;;;;;;19.85;54.42;94364.16;4991529;28;20110;-75
2023/06/22 04:19:03;;;;;;;16.20;10.60;;;;;;;19.80;55.19;94358.28;4988207;28;20038;-75
2023/06/22 04:21:29;;;;;;;14.00;9.65;;;;;;;19.82;55.21;94334.41;4991352;28;20545;-75
2023/06/22 04:23:54;;;;;;;11.57;9.00;;;;;;;20.04;54.59;94353.31;4990553;28;20038;-74
2023/06/22 04:26:20;;;;;;;12.18;9.88;;;;;;;20.04;54.55;94337.09;4988534;28;20080;-74
2023/06/22 04:28:51;;;;;;;18.23;10.20;;;;;;;20.07;55.27;94341.03;4990256;28;20044;-74
2023/06/22 04:31:17;;;;;;;12.80;9.75;;;;;;;20.16;55.44;94336.16;4988918;28;20029;-75
2023/06/22 04:33:43;;;;;;;11.57;9.65;;;;;;;20.17;55.29;94333.13;4989395;28;20040;-74
2023/06/22 04:36:08;;;;;;;15.55;9.65;;;;;;;20.29;55.52;94350.31;4989598;28;20408;-74
2023/06/22 04:38:33;;;;;;;14.63;9.15;;;;;;;20.31;55.57;94351.47;4988551;28;20472;-75
2023/06/22 04:41:01;;;;;;;19.60;9.77;;;;;;;20.42;54.71;94351.66;4989464;28;20496;-75
2023/06/22 04:43:30;;;;;;;17.42;11.07;;;;;;;20.39;55.10;94353.16;4988778;28;20104;-75
2023/06/22 04:45:56;;;;;;;17.75;10.88;;;;;;;20.41;54.84;94344.69;4990030;28;20034;-75
2023/06/22 04:48:21;;;;;;;17.02;10.82;;;;;;;20.56;54.92;94360.78;4986515;28;20052;-74
2023/06/22 04:50:47;;;;;;;15.15;10.93;;;;;;;20.65;54.82;94354.31;4989087;28;20021;-75
2023/06/22 04:53:12;;;;;;;16.98;10.20;;;;;;;20.69;54.04;94347.03;4989263;28;20022;-74
2023/06/22 04:55:41;;;;;;;16.52;10.82;;;;;;;20.46;53.96;94318.16;4988214;28;20804;-74
2023/06/22 04:58:07;;;;;;;17.20;12.02;;;;;;;20.42;54.62;94363.25;4989448;28;20050;-74
2023/06/22 05:00:35;;;;;;;16.42;11.88;;;;;;;20.11;54.99;94364.25;4989395;28;20420;-75
2023/06/22 05:03:03;;;;;;;25.98;13.02;;;;;;;20.36;54.64;94361.97;4989224;28;20137;-75
2023/06/22 05:05:28;;;;;;;16.83;11.00;;;;;;;20.25;54.30;94344.03;4988896;28;20030;-74
2023/06/22 05:07:59;;;;;;;20.05;12.75;;;;;;;20.71;54.53;94371.78;4989334;28;20032;-74
2023/06/22 05:10:25;;;;;;;16.05;12.20;;;;;;;20.40;53.62;94365.53;4987502;28;20125;-74
2023/06/22 05:12:50;;;;;;;16.52;12.15;;;;;;;20.62;53.60;94357.75;4991279;28;20045;-73
2023/06/22 05:15:16;;;;;;;22.35;11.95;;;;;;;20.63;54.12;94375.53;4988431;28;20505;-74
2023/06/22 05:17:47;;;;;;;29.98;12.63;;;;;;;20.72;53.04;94349.03;4985997;28;20045;-75
2023/06/22 05:20:13;;;;;;;23.42;12.18;;;;;;;20.84;51.55;94349.59;5006045;28;20132;-74
2023/06/22 05:22:39;;;;;;;23.05;12.23;;;;;;;20.62;52.70;94368.56;4990747;28;20064;-75
2023/06/22 05:25:09;;;;;;;15.80;12.23;;;;;;;20.69;52.89;94352.44;4986157;28;20412;-74
2023/06/22 05:27:39;;;;;;;17.58;12.98;;;;;;;20.95;53.15;94349.78;4991307;28;20152;-75
2023/06/22 05:30:08;;;;;;;24.75;14.35;;;;;;;20.55;53.45;94370.00;4992821;28;20088;-75
2023/06/22 05:32:34;;;;;;;15.80;12.50;;;;;;;20.57;53.97;94359.63;4990125;28;20419;-74
2023/06/22 05:34:59;;;;;;;18.98;12.80;;;;;;;21.06;52.99;94368.84;4986751;28;20146;-75
2023/06/22 05:37:26;;;;;;;16.33;13.50;;;;;;;20.82;53.33;94375.44;4988030;28;20542;-74
2023/06/22 05:39:52;;;;;;;23.98;12.93;;;;;;;20.91;53.98;94386.78;4982426;28;20740;-75
2023/06/22 05:42:17;;;;;;;20.25;13.18;;;;;;;21.14;53.90;94379.38;4984962;28;20092;-75
2023/06/22 05:44:43;;;;;;;29.48;14.65;;;;;;;21.34;52.62;94380.81;4986506;28;20029;-74
2023/06/22 05:47:08;;;;;;;20.15;14.15;;;;;;;21.46;52.78;94396.81;4987713;28;20029;-74
2023/06/22 05:49:33;;;;;;;22.80;13.70;;;;;;;21.58;52.47;94397.75;4988885;28;20323;-76
2023/06/22 05:52:00;;;;;;;20.60;14.25;;;;;;;21.64;51.92;94399.00;4989508;28;20125;-75
2023/06/22 05:54:28;;;;;;;17.45;13.75;;;;;;;21.79;51.78;94406.91;4986768;28;20038;-74
2023/06/22 05:56:53;;;;;;;17.48;12.80;;;;;;;21.86;51.82;94398.06;4987941;28;20506;-74
2023/06/22 05:59:19;;;;;;;15.82;12.88;;;;;;;21.95;52.12;94406.69;4986991;28;20038;-74
2023/06/22 06:01:44;;;;;;;17.50;13.93;;;;;;;21.97;51.96;94387.34;4986864;28;20042;-74
2023/06/22 06:04:09;;;;;;;17.50;14.23;;;;;;;22.04;51.74;94390.94;4983074;28;21995;-75
2023/06/22 06:06:36;;;;;;;17.83;13.65;;;;;;;21.96;52.06;94386.56;4987913;28;20571;-74
2023/06/22 06:09:04;;;;;;;18.30;14.57;;;;;;;22.15;52.00;94399.13;4987200;28;20069;-74
2023/06/22 06:11:29;;;;;;;19.80;13.82;;;;;;;22.17;51.50;94386.78;4988250;28;20029;-74
2023/06/22 06:13:55;;;;;;;17.10;12.95;;;;;;;22.25;50.99;94383.03;4988901;28;20065;-74
2023/06/22 06:16:22;;;;;;;18.92;13.23;;;;;;;22.18;51.48;94374.03;4988780;28;20500;-75
2023/06/22 06:18:49;;;;;;;19.00;13.57;;;;;;;22.57;51.84;94377.09;4989223;28;20095;-75
2023/06/22 06:21:14;;;;;;;17.40;14.48;;;;;;;22.66;51.68;94370.22;4987024;28;20412;-74
2023/06/22 06:23:40;;;;;;;18.90;13.57;;;;;;;22.33;52.35;94359.50;4988809;28;20027;-74
2023/06/22 06:26:06;;;;;;;18.20;14.00;;;;;;;22.45;51.40;94363.84;4993171;28;20455;-74
2023/06/22 06:28:32;;;;;;;21.67;12.75;;;;;;;22.62;51.22;94379.47;4990507;28;20054;-75
2023/06/22 06:30:57;;;;;;;17.83;12.70;;;;;;;22.63;51.04;94370.94;4991740;28;20049;-75
2023/06/22 06:33:24;;;;;;;21.42;13.73;;;;;;;22.95;49.22;94382.06;4991547;28;20504;-74
2023/06/22 06:35:49;;;;;;;17.27;12.30;;;;;;;22.70;50.37;94378.38;4988848;28;20484;-74
2023/06/22 06:38:15;;;;;;;18.95;13.02;;;;;;;22.95;51.27;94381.28;4992866;28;20026;-75
2023/06/22 06:40:40;;;;;;;19.45;13.15;;;;;;;23.00;49.90;94373.56;4989187;28;20164;-74
2023/06/22 06:43:06;;;;;;;17.48;12.35;;;;;;;22.65;50.76;94363.22;4990996;28;20088;-74
2023/06/22 06:45:34;;;;;;;18.30;13.63;;;;;;;22.94;50.58;94375.06;4989625;28;20136;-75
2023/06/22 06:47:59;;;;;;;16.55;11.98;;;;;;;23.24;50.14;94369.44;4991434;28;20599;-75
2023/06/22 06:50:25;;;;;;;16.05;11.70;;;;;;;23.36;49.37;94352.84;4989875;28;20124;-74
2023/06/22 06:52:50;;;;;;;14.55;12.10;;;;;;;23.46;49.84;94351.31;4992012;28;20065;-75
2023/06/22 06:55:16;;;;;;;16.23;11.70;;;;;;;23.58;49.35;94351.00;4991415;28;20033;-75
2023/06/22 06:57:42;;;;;;;19.10;12.45;;;;;;;23.42;48.55;94343.16;5002294;28;20172;-75
2023/06/22 07:00:15;;;;;;;17.38;11.77;;;;;;;23.60;49.03;94361.47;4991053;28;20126;-75
2023/06/22 07:02:43;;;;;;;18.35;12.20;;;;;;;23.46;48.18;94351.31;4990100;28;20586;-75
2023/06/22 07:05:09;;;;;;;18.25;13.00;;;;;;;23.65;48.05;94361.13;4989201;28;20411;-75
2023/06/22 07:07:35;;;;;;;18.98;13.30;;;;;;;23.82;49.00;94355.72;4992168;28;20185;-75
2023/06/22 07:10:00;;;;;;;15.43;11.52;;;;;;;23.55;48.91;94321.91;4990701;28;20046;-75
2023/06/22 07:12:25;;;;;;;19.58;12.27;;;;;;;23.98;47.70;94360.81;4990387;28;20050;-75
2023/06/22 07:14:52;;;;;;;16.95;11.48;;;;;;;24.05;48.38;94358.13;4990264;28;20058;-75
2023/06/22 07:17:17;;;;;;;15.38;11.98;;;;;;;24.22;47.11;94353.91;4989154;28;20026;-74
2023/06/22 07:19:43;;;;;;;17.15;11.50;;;;;;;24.24;47.52;94368.66;4989833;28;20080;-75
2023/06/22 07:22:08;;;;;;;18.45;12.95;;;;;;;24.15;47.37;94362.81;4988998;28;20402;-74
2023/06/22 07:24:34;;;;;;;16.20;11.13;;;;;;;23.92;47.79;94341.41;4991737;28;20046;-74
2023/06/22 07:26:59;;;;;;;16.85;11.65;;;;;;;24.14;48.88;94355.06;4989894;28;20044;-74
2023/06/22 07:29:26;;;;;;;14.35;10.43;;;;;;;24.40;47.61;94365.56;4989485;28;20030;-74
2023/06/22 07:31:52;;;;;;;15.13;11.68;;;;;;;24.57;48.50;94353.91;4986183;28;20034;-75
2023/06/22 07:34:18;;;;;;;12.30;10.93;;;;;;;24.76;47.03;94360.91;4990499;28;20496;-74
2023/06/22 07:36:44;;;;;;;13.05;11.52;;;;;;;24.50;47.76;94348.47;4988836;28;20369;-73
2023/06/22 07:39:11;;;;;;;13.18;11.07;;;;;;;24.56;47.25;94365.94;4988088;28;20758;-74
2023/06/22 07:41:37;;;;;;;15.25;11.43;;;;;;;24.71;48.07;94353.94;4984087;28;20072;-75
2023/06/22 07:44:03;;;;;;;16.42;11.57;;;;;;;24.72;46.70;94374.53;4987633;28;20026;-74
2023/06/22 07:46:30;;;;;;;17.08;11.07;;;;;;;24.62;46.06;94367.13;4982259;28;20426;-74
2023/06/22 07:48:56;;;;;;;16.38;11.57;;;;;;;24.65;47.07;94371.78;4988248;28;20034;-74
2023/06/22 07:51:21;;;;;;;16.27;11.80;;;;;;;24.37;46.91;94361.69;5002907;28;20125;-75
2023/06/22 07:53:47;;;;;;;12.15;10.85;;;;;;;24.31;47.14;94367.88;4990176;28;20022;-73
2023/06/22 07:56:13;;;;;;;13.20;10.90;;;;;;;24.24;47.38;94373.31;4984313;28;20038;-74
2023/06/22 07:58:39;;;;;;;15.50;11.18;;;;;;;23.99;47.52;94363.16;4988793;28;20044;-74
2023/06/22 08:01:05;;;;;;;14.90;11.23;;;;;;;24.11;47.50;94353.06;4988305;28;20034;-74
2023/06/22 08:03:31;;;;;;;17.88;12.20;;;;;;;24.11;48.64;94353.06;4989089;28;20057;-74
2023/06/22 08:05:57;;;;;;;14.63;11.02;;;;;;;24.19;46.18;94360.09;4988168;28;20269;-74
2023/06/22 08:08:22;;;;;;;11.25;10.15;;;;;;;24.15;46.96;94356.63;4989591;28;20030;-74
2023/06/22 08:10:48;;;;;;;12.15;10.82;;;;;;;24.28;47.04;94355.06;4989489;28;20429;-73
2023/06/22 08:13:13;;;;;;;11.30;10.20;;;;;;;24.18;47.10;94358.56;4986488;28;20041;-73
2023/06/22 08:15:39;;;;;;;14.50;10.95;;;;;;;24.37;48.48;94350.81;4988707;28;20710;-75
2023/06/22 08:18:05;;;;;;;13.30;10.65;;;;;;;24.31;48.35;94343.41;4987967;28;20035;-74
2023/06/22 08:20:30;;;;;;;16.00;10.52;;;;;;;24.15;48.31;94340.31;4989656;28;20421;-74
2023/06/22 08:22:57;;;;;;;15.38;11.38;;;;;;;24.31;48.23;94346.91;4987339;28;20030;-74
2023/06/22 08:25:23;;;;;;;16.67;11.82;;;;;;;24.44;47.54;94339.91;4986283;28;20048;-74
2023/06/22 08:27:48;;;;;;;12.48;11.27;;;;;;;24.66;47.10;94337.97;4988471;28;20036;-74
2023/06/22 08:30:15;;;;;;;13.55;10.73;;;;;;;24.76;46.01;94339.16;4987225;28;20037;-74
2023/06/22 08:32:40;;;;;;;13.45;12.15;;;;;;;24.46;46.37;94336.81;4987359;28;20211;-74
2023/06/22 08:35:08;;;;;;;14.82;11.38;;;;;;;24.65;47.98;94339.13;4988845;28;20031;-75
2023/06/22 08:37:35;;;;;;;16.33;12.15;;;;;;;24.75;47.90;94348.47;4988068;28;20614;-74
2023/06/22 08:40:05;;;;;;;13.52;11.80;;;;;;;24.50;47.63;94348.47;4983032;28;20113;-74
2023/06/22 08:42:31;;;;;;;13.98;11.15;;;;;;;24.48;48.25;94337.22;4986870;28;20050;-75
2023/06/22 08:44:56;;;;;;;18.20;11.82;;;;;;;24.27;48.59;94346.13;4991612;28;20048;-74
2023/06/22 08:47:22;;;;;;;17.13;12.10;;;;;;;24.33;50.20;94338.38;4986308;28;21813;-75
2023/06/22 08:49:48;;;;;;;12.93;11.40;;;;;;;24.53;48.40;94346.94;4986955;28;20515;-74
2023/06/22 08:52:14;;;;;;;12.70;10.05;;;;;;;24.47;46.48;94332.94;4994707;28;20511;-73
2023/06/22 08:54:39;;;;;;;15.07;12.65;;;;;;;24.42;48.45;94339.53;4987625;28;20039;-74
2023/06/22 08:57:05;;;;;;;17.05;11.85;;;;;;;24.44;47.64;94337.19;4985025;28;20079;-74
2023/06/22 08:59:30;;;;;;;13.32;11.65;;;;;;;24.61;46.72;94332.94;4985628;28;20018;-74
2023/06/22 09:01:56;;;;;;;15.48;11.27;;;;;;;24.93;46.00;94335.63;4990148;28;20345;-74
2023/06/22 09:04:22;;;;;;;14.15;10.77;;;;;;;24.84;47.03;94333.31;4988225;28;20526;-75
2023/06/22 09:06:49;;;;;;;12.25;10.73;;;;;;;24.68;47.89;94322.06;4984358;28;20951;-73
2023/06/22 09:09:15;;;;;;;12.85;10.18;;;;;;;24.74;46.54;94325.94;4985641;28;20034;-74
2023/06/22 09:11:41;;;;;;;10.98;9.88;;;;;;;24.88;44.80;94319.72;4986965;28;20273;-74
2023/06/22 09:14:07;;;;;;;11.50;8.70;;;;;;;24.88;41.38;94325.16;4989609;28;20865;-74
2023/06/22 09:16:32;;;;;;;9.15;8.35;;;;;;;24.53;41.98;94320.50;4994296;28;20115;-74
2023/06/22 09:18:57;;;;;;;9.63;8.55;;;;;;;24.77;42.64;94316.25;4985478;28;20034;-74
2023/06/22 09:21:24;;;;;;;11.95;9.35;;;;;;;24.87;43.36;94320.88;4988973;28;20038;-75
2023/06/22 09:23:51;;;;;;;9.85;8.80;;;;;;;24.93;44.13;94330.19;4984876;28;20034;-74
2023/06/22 09:26:17;;;;;;;9.60;8.65;;;;;;;25.14;43.58;94321.97;4994269;28;20029;-74
2023/06/22 09:28:43;;;;;;;12.80;9.60;;;;;;;25.28;42.93;94327.38;4986712;28;20045;-74
2023/06/22 09:31:08;;;;;;;12.20;10.00;;;;;;;25.33;42.81;94334.38;4993996;28;20034;-75
2023/06/22 09:33:34;;;;;;;10.50;8.80;;;;;;;25.39;42.36;94327.38;4983281;28;20038;-74
2023/06/22 09:35:59;;;;;;;9.95;8.38;;;;;;;25.41;43.34;94330.47;4984712;28;20057;-74
2023/06/22 09:38:24;;;;;;;10.45;8.15;;;;;;;25.51;42.21;94334.31;4986592;28;20472;-74
2023/06/22 09:40:50;;;;;;;10.73;9.13;;;;;;;25.43;41.62;94317.22;4986086;28;20053;-75
2023/06/22 09:43:15;;;;;;;10.52;9.52;;;;;;;25.52;41.64;94336.63;4985026;28;20834;-74
2023/06/22 09:45:40;;;;;;;10.93;9.10;;;;;;;25.54;42.03;94334.31;4987697;28;20043;-74
2023/06/22 09:48:06;;;;;;;11.18;9.98;;;;;;;25.57;41.88;94317.16;4984866;28;20164;-75
2023/06/22 09:50:31;;;;;;;10.27;9.27;;;;;;;25.64;41.77;94319.09;4988328;28;20037;-75
2023/06/22 09:52:56;;;;;;;10.80;8.95;;;;;;;25.55;42.00;94319.53;4986342;28;20034;-75
2023/06/22 09:55:22;;;;;;;11.00;9.13;;;;;;;25.61;42.53;94312.50;4987752;28;20508;-74
2023/06/22 09:57:47;;;;;;;9.50;8.32;;;;;;;25.79;41.43;94322.50;4989728;28;20046;-75
2023/06/22 10:00:15;;;;;;;9.55;8.65;;;;;;;25.58;41.50;94324.16;4992264;28;20046;-74
2023/06/22 10:02:43;;;;;;;9.10;7.90;;;;;;;25.61;41.51;94307.06;4990745;28;20034;-75
2023/06/22 10:05:09;;;;;;;10.93;9.82;;;;;;;25.81;41.90;94314.72;4993546;28;20029;-74
2023/06/22 10:07:34;;;;;;;9.98;8.98;;;;;;;25.81;41.16;94315.47;4990418;28;20048;-74
2023/06/22 10:09:59;;;;;;;10.15;9.00;;;;;;;25.89;41.93;94316.25;4991113;28;20467;-74
2023/06/22 10:12:27;;;;;;;9.02;8.13;;;;;;;25.83;41.04;94306.91;4991241;28;20054;-74
2023/06/22 10:14:53;;;;;;;9.38;8.38;;;;;;;25.94;40.34;94303.00;4991546;28;20110;-73
2023/06/22 10:17:18;;;;;;;9.90;8.80;;;;;;;25.97;40.18;94306.84;4991313;28;20033;-74
2023/06/22 10:19:43;;;;;;;10.88;8.77;;;;;;;25.97;40.56;94307.63;4992386;28;20520;-74
2023/06/22 10:22:09;;;;;;;9.23;7.97;;;;;;;25.88;40.17;94298.31;4986943;28;20109;-74
2023/06/22 10:24:34;;;;;;;10.02;9.05;;;;;;;25.96;40.72;94295.19;4992352;28;20465;-74
2023/06/22 10:27:00;;;;;;;10.52;9.55;;;;;;;26.11;39.50;94295.84;4991123;28;20050;-75
2023/06/22 10:29:25;;;;;;;10.18;9.18;;;;;;;26.13;42.74;94305.19;4991754;28;20034;-74
2023/06/22 10:31:50;;;;;;;9.43;8.40;;;;;;;26.08;41.44;94293.94;4990840;28;20034;-74
2023/06/22 10:34:16;;;;;;;9.57;8.65;;;;;;;26.31;39.49;94305.06;4990629;28;20061;-73
2023/06/22 10:36:41;;;;;;;10.85;8.50;;;;;;;26.27;38.95;94300.81;4976337;28;20645;-74
2023/06/22 10:39:07;;;;;;;8.80;7.97;;;;;;;26.28;38.00;94294.97;4980977;28;20034;-73
2023/06/22 10:41:32;;;;;;;9.20;8.30;;;;;;;26.08;38.11;94285.75;4982924;28;20072;-74
2023/06/22 10:43:58;;;;;;;9.52;8.20;;;;;;;26.17;42.29;94272.44;4983446;28;20420;-74
2023/06/22 10:46:27;;;;;;;10.15;8.48;;;;;;;26.54;40.28;94290.88;4977903;28;20670;-74
2023/06/22 10:48:55;;;;;;;10.32;8.70;;;;;;;26.50;38.60;94296.34;4980336;28;20521;-74
2023/06/22 10:51:20;;;;;;;9.07;8.15;;;;;;;26.30;38.88;94278.22;4982968;28;20104;-74
2023/06/22 10:53:45;;;;;;;10.55;9.20;;;;;;;26.50;38.22;94290.91;4980992;28;20033;-74
2023/06/22 10:56:11;;;;;;;10.13;9.13;;;;;;;26.52;37.54;94283.09;4985331;28;20354;-73
2023/06/22 10:58:36;;;;;;;11.43;8.75;;;;;;;26.54;37.46;94286.19;4988169;28;20041;-73
2023/06/22 11:01:03;;;;;;;11.45;8.85;;;;;;;26.48;36.69;94281.56;4982446;28;20100;-73
2023/06/22 11:03:28;;;;;;;11.15;9.35;;;;;;;26.48;37.89;94276.13;4981786;28;20165;-73
2023/06/22 11:05:54;;;;;;;10.95;8.85;;;;;;;26.58;38.45;94279.94;4980755;28;20033;-73
2023/06/22 11:08:19;;;;;;;9.75;8.07;;;;;;;26.65;38.24;94285.31;4980972;28;20026;-74
2023/06/22 11:10:44;;;;;;;11.27;8.73;;;;;;;26.55;36.70;94267.88;4983899;28;20504;-74
2023/06/22 11:13:10;;;;;;;9.77;8.75;;;;;;;26.54;38.49;94271.78;4979168;28;20038;-74
2023/06/22 11:15:36;;;;;;;10.80;9.02;;;;;;;26.66;38.98;94281.41;4982898;28;20353;-75
2023/06/22 11:18:01;;;;;;;10.05;8.52;;;;;;;26.45;38.50;94268.69;4989371;28;20675;-75
2023/06/22 11:20:27;;;;;;;15.20;8.63;;;;;;;26.55;36.97;94271.38;4981523;28;20034;-74